الصفحة الرئيسية
METAR-TAF:

METAR-TAF

مطار :

مطار الكفرة

الكفرة, ليبيا

دائرة عرض: 24-13N, خط طول: 023-18E, ارتفاع: 417 متر

METAR: مفقودة

زمن: 22:59 (20:59 UTC)

توقعات

تاريخ ووقت الإصدار 27ساعات و 59 دقيقة قبل الساعة 17:00UTC
التوقعات صالحة من12 الساعة 18 UTC إلى 13 الساعة 18 UTC
ريح 2 عقدةمن اتجاهات متغيرة
الرؤية 10 كم أو أكثر
الغيوم لا تقل 1500 م ولا وجود لمزنة ركامية السحاب الأسود

TAF: HLKF 121700Z 1218/1318 30010KT CAVOK BECMG1220/1222 VRB02KT

أرصاد الطقس والتوقعات من أكثر من 4000 مطار (تقارير الطقس للمطار METAR والتنبؤ بالطقس بالمطارTAF).

المحطات المتاحة هي النقط الصفراء والحمراء على الخريطة.

حرك المؤشر فوق النقطة لمعرفة اسم المحطة.

ثم انقر لمعرفة أرصاد وتوقعات الطقس.

لتغيير الخارطة: اضغط على الأزرار الخضراء مع رمز الصليب الأسود للتكبير. على الزر الأخضر مع شرطة للتصغير، أو على الأسهم الخضراء للخرائط المجاورة.


METAR-TAF: